sensor_id;sensor_type;location;lat;lon;timestamp;pressure;altitude;pressure_sealevel;temperature;humidity
59487;BME280;45298;54.918;73.504;2023-11-19T00:00:33;99344.66;;;-6.74;95.25
59487;BME280;45298;54.918;73.504;2023-11-19T00:03:01;99361.00;;;-6.72;96.18
59487;BME280;45298;54.918;73.504;2023-11-19T00:05:30;99365.31;;;-6.81;96.52
59487;BME280;45298;54.918;73.504;2023-11-19T00:07:59;99379.94;;;-6.94;96.50
59487;BME280;45298;54.918;73.504;2023-11-19T00:10:28;99380.84;;;-6.99;95.46
59487;BME280;45298;54.918;73.504;2023-11-19T00:12:57;99404.91;;;-7.06;95.73
59487;BME280;45298;54.918;73.504;2023-11-19T00:15:25;99419.53;;;-7.09;96.16
59487;BME280;45298;54.918;73.504;2023-11-19T00:17:54;99414.34;;;-7.14;95.50
59487;BME280;45298;54.918;73.504;2023-11-19T00:20:27;99413.50;;;-7.30;95.32
59487;BME280;45298;54.918;73.504;2023-11-19T00:22:57;99428.94;;;-7.33;94.68
59487;BME280;45298;54.918;73.504;2023-11-19T00:25:28;99416.91;;;-7.48;95.36
59487;BME280;45298;54.918;73.504;2023-11-19T00:27:58;99445.28;;;-7.39;95.88
59487;BME280;45298;54.918;73.504;2023-11-19T00:30:28;99479.63;;;-7.37;95.53
59487;BME280;45298;54.918;73.504;2023-11-19T00:32:56;99482.19;;;-7.38;96.03
59487;BME280;45298;54.918;73.504;2023-11-19T00:35:26;99484.75;;;-7.49;95.20
59487;BME280;45298;54.918;73.504;2023-11-19T00:37:55;99508.75;;;-7.53;94.63
59487;BME280;45298;54.918;73.504;2023-11-19T00:40:23;99508.75;;;-7.66;93.20
59487;BME280;45298;54.918;73.504;2023-11-19T00:42:52;99528.44;;;-7.71;94.08
59487;BME280;45298;54.918;73.504;2023-11-19T00:45:21;99534.47;;;-7.75;94.83
59487;BME280;45298;54.918;73.504;2023-11-19T00:47:50;99530.94;;;-7.90;95.54
59487;BME280;45298;54.918;73.504;2023-11-19T00:50:19;99542.09;;;-7.92;95.06
59487;BME280;45298;54.918;73.504;2023-11-19T00:52:47;99560.09;;;-7.97;94.88
59487;BME280;45298;54.918;73.504;2023-11-19T00:55:17;99555.81;;;-7.98;94.15
59487;BME280;45298;54.918;73.504;2023-11-19T00:57:46;99560.91;;;-8.07;94.51
59487;BME280;45298;54.918;73.504;2023-11-19T01:00:15;99578.84;;;-8.13;94.50
59487;BME280;45298;54.918;73.504;2023-11-19T01:02:48;99597.72;;;-8.17;94.07
59487;BME280;45298;54.918;73.504;2023-11-19T01:05:20;99626.88;;;-8.18;94.89
59487;BME280;45298;54.918;73.504;2023-11-19T01:07:52;99613.91;;;-8.32;94.29
59487;BME280;45298;54.918;73.504;2023-11-19T01:10:22;99603.47;;;-8.53;93.71
59487;BME280;45298;54.918;73.504;2023-11-19T01:12:52;99659.34;;;-8.36;93.80
59487;BME280;45298;54.918;73.504;2023-11-19T01:15:21;99664.38;;;-8.47;93.56
59487;BME280;45298;54.918;73.504;2023-11-19T01:17:51;99648.91;;;-8.55;93.92
59487;BME280;45298;54.918;73.504;2023-11-19T01:20:20;99677.16;;;-8.56;92.85
59487;BME280;45298;54.918;73.504;2023-11-19T01:22:50;99684.00;;;-8.58;93.80
59487;BME280;45298;54.918;73.504;2023-11-19T01:25:19;99681.31;;;-8.69;94.21
59487;BME280;45298;54.918;73.504;2023-11-19T01:27:48;99683.06;;;-8.68;94.04
59487;BME280;45298;54.918;73.504;2023-11-19T01:30:18;99688.13;;;-8.77;94.07
59487;BME280;45298;54.918;73.504;2023-11-19T01:32:49;99697.50;;;-8.79;93.90
59487;BME280;45298;54.918;73.504;2023-11-19T01:35:18;99711.19;;;-8.82;93.37
59487;BME280;45298;54.918;73.504;2023-11-19T01:37:48;99716.22;;;-8.90;93.83
59487;BME280;45298;54.918;73.504;2023-11-19T01:40:22;99692.03;;;-9.09;93.59
59487;BME280;45298;54.918;73.504;2023-11-19T01:42:51;99724.78;;;-8.91;93.80
59487;BME280;45298;54.918;73.504;2023-11-19T01:45:27;99744.53;;;-8.87;93.97
59487;BME280;45298;54.918;73.504;2023-11-19T01:47:58;99767.75;;;-8.81;94.22
59487;BME280;45298;54.918;73.504;2023-11-19T01:50:28;99750.53;;;-8.88;94.04
59487;BME280;45298;54.918;73.504;2023-11-19T01:52:57;99753.16;;;-8.85;94.90
59487;BME280;45298;54.918;73.504;2023-11-19T01:55:27;99761.75;;;-8.83;94.17
59487;BME280;45298;54.918;73.504;2023-11-19T01:57:59;99760.88;;;-8.83;94.95
59487;BME280;45298;54.918;73.504;2023-11-19T02:00:30;99787.44;;;-8.83;95.09
59487;BME280;45298;54.918;73.504;2023-11-19T02:03:06;99791.69;;;-8.86;94.11
59487;BME280;45298;54.918;73.504;2023-11-19T02:05:37;99716.50;;;-9.37;95.09
59487;BME280;45298;54.918;73.504;2023-11-19T02:08:07;99808.81;;;-8.88;94.64
59487;BME280;45298;54.918;73.504;2023-11-19T02:10:37;99822.50;;;-8.89;94.38
59487;BME280;45298;54.918;73.504;2023-11-19T02:13:06;99828.44;;;-8.92;94.11
59487;BME280;45298;54.918;73.504;2023-11-19T02:15:35;99843.84;;;-8.92;94.40
59487;BME280;45298;54.918;73.504;2023-11-19T02:18:24;99854.94;;;-8.98;94.51
59487;BME280;45298;54.918;73.504;2023-11-19T02:21:00;99848.84;;;-9.04;94.65
59487;BME280;45298;54.918;73.504;2023-11-19T02:23:30;99854.84;;;-9.04;94.73
59487;BME280;45298;54.918;73.504;2023-11-19T02:28:49;99891.72;;;-9.00;94.33
59487;BME280;45298;54.918;73.504;2023-11-19T02:31:18;99890.00;;;-9.03;94.19
59487;BME280;45298;54.918;73.504;2023-11-19T02:33:48;99893.41;;;-9.02;95.12
59487;BME280;45298;54.918;73.504;2023-11-19T02:36:18;99901.06;;;-9.07;94.89
59487;BME280;45298;54.918;73.504;2023-11-19T02:38:47;99894.09;;;-9.14;94.15
59487;BME280;45298;54.918;73.504;2023-11-19T02:41:16;99909.53;;;-9.13;93.55
59487;BME280;45298;54.918;73.504;2023-11-19T02:43:45;99924.91;;;-9.14;94.30
59487;BME280;45298;54.918;73.504;2023-11-19T02:46:17;99916.25;;;-9.21;94.30
59487;BME280;45298;54.918;73.504;2023-11-19T02:48:45;99905.72;;;-9.36;93.83
59487;BME280;45298;54.918;73.504;2023-11-19T02:51:14;99945.34;;;-9.20;94.84
59487;BME280;45298;54.918;73.504;2023-11-19T02:53:44;99943.69;;;-9.20;94.77
59487;BME280;45298;54.918;73.504;2023-11-19T02:56:16;99953.00;;;-9.25;94.82
59487;BME280;45298;54.918;73.504;2023-11-19T02:58:54;99970.19;;;-9.22;94.39
59487;BME280;45298;54.918;73.504;2023-11-19T03:01:24;99978.88;;;-9.16;94.42
59487;BME280;45298;54.918;73.504;2023-11-19T03:04:00;99973.72;;;-9.16;94.24
59487;BME280;45298;54.918;73.504;2023-11-19T03:06:31;99979.53;;;-9.26;93.94
59487;BME280;45298;54.918;73.504;2023-11-19T03:09:00;99989.97;;;-9.17;94.33
59487;BME280;45298;54.918;73.504;2023-11-19T03:11:34;99998.59;;;-9.13;93.99
59487;BME280;45298;54.918;73.504;2023-11-19T03:14:03;99999.50;;;-9.11;94.52
59487;BME280;45298;54.918;73.504;2023-11-19T03:16:32;100021.09;;;-9.00;94.84
59487;BME280;45298;54.918;73.504;2023-11-19T03:19:01;99996.78;;;-9.19;94.23
59487;BME280;45298;54.918;73.504;2023-11-19T03:21:30;100052.94;;;-8.91;94.27
59487;BME280;45298;54.918;73.504;2023-11-19T03:23:59;100059.81;;;-8.90;94.28
59487;BME280;45298;54.918;73.504;2023-11-19T03:26:31;100067.56;;;-8.87;93.61
59487;BME280;45298;54.918;73.504;2023-11-19T03:29:02;100063.22;;;-8.90;94.33
59487;BME280;45298;54.918;73.504;2023-11-19T03:31:30;100065.94;;;-8.82;94.71
59487;BME280;45298;54.918;73.504;2023-11-19T03:33:59;100091.88;;;-8.70;94.82
59487;BME280;45298;54.918;73.504;2023-11-19T03:36:34;100080.69;;;-8.73;93.84
59487;BME280;45298;54.918;73.504;2023-11-19T03:39:03;100112.50;;;-8.67;93.73
59487;BME280;45298;54.918;73.504;2023-11-19T03:41:32;100114.19;;;-8.67;93.74
59487;BME280;45298;54.918;73.504;2023-11-19T03:44:03;100123.56;;;-8.69;93.40
59487;BME280;45298;54.918;73.504;2023-11-19T03:46:32;100121.72;;;-8.78;92.88
59487;BME280;45298;54.918;73.504;2023-11-19T03:49:01;100144.25;;;-8.64;93.46
59487;BME280;45298;54.918;73.504;2023-11-19T03:51:33;100135.59;;;-8.68;93.38
59487;BME280;45298;54.918;73.504;2023-11-19T03:54:03;100160.59;;;-8.59;93.26
59487;BME280;45298;54.918;73.504;2023-11-19T03:56:32;100148.38;;;-8.71;92.44
59487;BME280;45298;54.918;73.504;2023-11-19T03:59:01;100164.78;;;-8.66;91.99
59487;BME280;45298;54.918;73.504;2023-11-19T04:01:30;100172.56;;;-8.63;92.94
59487;BME280;45298;54.918;73.504;2023-11-19T04:03:58;100178.59;;;-8.61;92.49
59487;BME280;45298;54.918;73.504;2023-11-19T04:06:27;100184.59;;;-8.60;91.96
59487;BME280;45298;54.918;73.504;2023-11-19T04:08:56;100187.19;;;-8.59;92.33
59487;BME280;45298;54.918;73.504;2023-11-19T04:11:25;100181.22;;;-8.58;92.65
59487;BME280;45298;54.918;73.504;2023-11-19T04:13:54;100214.88;;;-8.44;92.65
59487;BME280;45298;54.918;73.504;2023-11-19T04:16:26;100215.81;;;-8.39;93.27
59487;BME280;45298;54.918;73.504;2023-11-19T04:18:58;100214.19;;;-8.35;92.96
59487;BME280;45298;54.918;73.504;2023-11-19T04:21:26;100227.38;;;-8.16;94.15
59487;BME280;45298;54.918;73.504;2023-11-19T04:23:55;100231.63;;;-8.17;93.05
59487;BME280;45298;54.918;73.504;2023-11-19T04:26:25;100228.22;;;-8.16;93.00
59487;BME280;45298;54.918;73.504;2023-11-19T04:28:56;100252.34;;;-8.11;92.68
59487;BME280;45298;54.918;73.504;2023-11-19T04:31:29;100251.31;;;-8.21;92.55
59487;BME280;45298;54.918;73.504;2023-11-19T04:34:00;100266.63;;;-8.27;91.72
59487;BME280;45298;54.918;73.504;2023-11-19T04:36:28;100273.38;;;-8.32;92.23
59487;BME280;45298;54.918;73.504;2023-11-19T04:38:58;100257.63;;;-8.51;92.31
59487;BME280;45298;54.918;73.504;2023-11-19T04:41:28;100285.31;;;-8.37;92.10
59487;BME280;45298;54.918;73.504;2023-11-19T04:43:56;100289.63;;;-8.36;92.63
59487;BME280;45298;54.918;73.504;2023-11-19T04:46:25;100291.41;;;-8.32;92.86
59487;BME280;45298;54.918;73.504;2023-11-19T04:48:55;100286.94;;;-8.42;91.88
59487;BME280;45298;54.918;73.504;2023-11-19T04:51:23;100297.22;;;-8.42;92.22
59487;BME280;45298;54.918;73.504;2023-11-19T04:53:53;100304.09;;;-8.41;91.79
59487;BME280;45298;54.918;73.504;2023-11-19T04:56:22;100305.69;;;-8.50;91.92
59487;BME280;45298;54.918;73.504;2023-11-19T04:58:51;100315.03;;;-8.55;91.45
59487;BME280;45298;54.918;73.504;2023-11-19T05:01:20;100320.94;;;-8.59;92.40
59487;BME280;45298;54.918;73.504;2023-11-19T05:03:49;100331.44;;;-8.48;92.03
59487;BME280;45298;54.918;73.504;2023-11-19T05:06:22;100330.69;;;-8.41;92.20
59487;BME280;45298;54.918;73.504;2023-11-19T05:08:51;100343.75;;;-8.30;93.75
59487;BME280;45298;54.918;73.504;2023-11-19T05:11:20;100342.09;;;-8.28;92.42
59487;BME280;45298;54.918;73.504;2023-11-19T05:13:49;100340.28;;;-8.32;92.45
59487;BME280;45298;54.918;73.504;2023-11-19T05:16:18;100347.28;;;-8.26;92.87
59487;BME280;45298;54.918;73.504;2023-11-19T05:18:51;100362.97;;;-8.12;92.92
59487;BME280;45298;54.918;73.504;2023-11-19T05:21:20;100364.06;;;-8.01;94.04
59487;BME280;45298;54.918;73.504;2023-11-19T05:23:49;100363.41;;;-7.89;93.80
59487;BME280;45298;54.918;73.504;2023-11-19T05:26:19;100372.88;;;-7.88;92.99
59487;BME280;45298;54.918;73.504;2023-11-19T05:28:50;100385.84;;;-7.83;92.68
59487;BME280;45298;54.918;73.504;2023-11-19T05:31:21;100379.78;;;-7.85;92.53
59487;BME280;45298;54.918;73.504;2023-11-19T05:33:50;100384.91;;;-7.87;92.16
59487;BME280;45298;54.918;73.504;2023-11-19T05:36:19;100386.59;;;-7.89;91.41
59487;BME280;45298;54.918;73.504;2023-11-19T05:38:47;100344.94;;;-8.14;91.93
59487;BME280;45298;54.918;73.504;2023-11-19T05:41:16;100404.63;;;-7.87;92.07
59487;BME280;45298;54.918;73.504;2023-11-19T05:43:45;100402.13;;;-7.84;92.03
59487;BME280;45298;54.918;73.504;2023-11-19T05:46:14;100400.38;;;-7.87;91.55
59487;BME280;45298;54.918;73.504;2023-11-19T05:48:47;100400.53;;;-7.78;92.41
59487;BME280;45298;54.918;73.504;2023-11-19T05:51:22;100418.75;;;-7.67;93.12
59487;BME280;45298;54.918;73.504;2023-11-19T05:53:52;100419.59;;;-7.68;92.26
59487;BME280;45298;54.918;73.504;2023-11-19T05:56:21;100421.31;;;-7.67;92.82
59487;BME280;45298;54.918;73.504;2023-11-19T05:58:50;100424.66;;;-7.72;91.65
59487;BME280;45298;54.918;73.504;2023-11-19T06:01:19;100434.06;;;-7.73;90.70
59487;BME280;45298;54.918;73.504;2023-11-19T06:03:48;100396.75;;;-7.95;90.56
59487;BME280;45298;54.918;73.504;2023-11-19T06:06:18;100435.78;;;-7.75;90.38
59487;BME280;45298;54.918;73.504;2023-11-19T06:08:47;100440.06;;;-7.76;91.87
59487;BME280;45298;54.918;73.504;2023-11-19T06:11:16;100452.22;;;-7.68;91.48
59487;BME280;45298;54.918;73.504;2023-11-19T06:13:48;100461.00;;;-7.59;91.26
59487;BME280;45298;54.918;73.504;2023-11-19T06:19:08;100448.19;;;-7.52;91.10
59487;BME280;45298;54.918;73.504;2023-11-19T06:21:38;100461.34;;;-7.38;91.75
59487;BME280;45298;54.918;73.504;2023-11-19T06:24:07;100480.44;;;-7.27;91.74
59487;BME280;45298;54.918;73.504;2023-11-19T06:26:37;100489.66;;;-7.40;90.06
59487;BME280;45298;54.918;73.504;2023-11-19T06:29:06;100488.53;;;-7.54;90.15
59487;BME280;45298;54.918;73.504;2023-11-19T06:31:35;100504.94;;;-7.51;89.70
59487;BME280;45298;54.918;73.504;2023-11-19T06:34:04;100498.03;;;-7.52;90.03
59487;BME280;45298;54.918;73.504;2023-11-19T06:36:32;100487.66;;;-7.55;91.65
59487;BME280;45298;54.918;73.504;2023-11-19T06:39:02;100497.88;;;-7.60;91.55
59487;BME280;45298;54.918;73.504;2023-11-19T06:41:35;100502.28;;;-7.55;91.07
59487;BME280;45298;54.918;73.504;2023-11-19T06:44:06;100519.72;;;-7.40;92.49
59487;BME280;45298;54.918;73.504;2023-11-19T06:46:35;100522.63;;;-7.23;92.43
59487;BME280;45298;54.918;73.504;2023-11-19T06:49:04;100520.03;;;-7.22;92.45
59487;BME280;45298;54.918;73.504;2023-11-19T06:51:33;100537.38;;;-7.15;91.76
59487;BME280;45298;54.918;73.504;2023-11-19T06:54:02;100524.50;;;-7.13;93.10
59487;BME280;45298;54.918;73.504;2023-11-19T06:56:31;100530.28;;;-7.28;90.72
59487;BME280;45298;54.918;73.504;2023-11-19T06:59:00;100529.31;;;-7.32;91.03
59487;BME280;45298;54.918;73.504;2023-11-19T07:01:34;100532.69;;;-7.36;91.23
59487;BME280;45298;54.918;73.504;2023-11-19T07:04:06;100546.47;;;-7.34;90.97
59487;BME280;45298;54.918;73.504;2023-11-19T07:06:38;100560.50;;;-7.19;92.53
59487;BME280;45298;54.918;73.504;2023-11-19T07:09:09;100540.59;;;-7.25;91.04
59487;BME280;45298;54.918;73.504;2023-11-19T07:11:39;100564.97;;;-7.10;92.52
59487;BME280;45298;54.918;73.504;2023-11-19T07:14:08;100558.69;;;-7.23;92.02
59487;BME280;45298;54.918;73.504;2023-11-19T07:16:37;100567.97;;;-7.32;91.98
59487;BME280;45298;54.918;73.504;2023-11-19T07:19:07;100570.41;;;-7.41;90.28
59487;BME280;45298;54.918;73.504;2023-11-19T07:21:36;100550.19;;;-7.64;90.61
59487;BME280;45298;54.918;73.504;2023-11-19T07:24:12;100584.13;;;-7.42;90.45
59487;BME280;45298;54.918;73.504;2023-11-19T07:26:45;100569.44;;;-7.45;90.45
59487;BME280;45298;54.918;73.504;2023-11-19T07:29:14;100575.53;;;-7.41;90.66
59487;BME280;45298;54.918;73.504;2023-11-19T07:31:56;100577.16;;;-7.46;91.37
59487;BME280;45298;54.918;73.504;2023-11-19T07:34:25;100571.38;;;-7.36;90.55
59487;BME280;45298;54.918;73.504;2023-11-19T07:36:53;100579.44;;;-7.17;90.40
59487;BME280;45298;54.918;73.504;2023-11-19T07:39:23;100584.00;;;-7.02;90.08
59487;BME280;45298;54.918;73.504;2023-11-19T08:11:35;100635.97;;;-7.26;91.82
59487;BME280;45298;54.918;73.504;2023-11-19T08:14:04;100636.63;;;-7.37;91.25
59487;BME280;45298;54.918;73.504;2023-11-19T08:16:33;100652.84;;;-7.41;91.38
59487;BME280;45298;54.918;73.504;2023-11-19T08:19:03;100670.91;;;-7.41;91.67
59487;BME280;45298;54.918;73.504;2023-11-19T08:21:31;100671.44;;;-7.54;91.35
59487;BME280;45298;54.918;73.504;2023-11-19T08:24:00;100660.34;;;-7.52;92.20
59487;BME280;45298;54.918;73.504;2023-11-19T08:26:29;100656.72;;;-7.60;91.10
59487;BME280;45298;54.918;73.504;2023-11-19T08:28:58;100649.59;;;-7.72;90.57
59487;BME280;45298;54.918;73.504;2023-11-19T08:31:27;100655.31;;;-7.85;90.06
59487;BME280;45298;54.918;73.504;2023-11-19T08:33:56;100673.50;;;-7.79;90.54
59487;BME280;45298;54.918;73.504;2023-11-19T08:36:27;100676.09;;;-7.78;90.78
59487;BME280;45298;54.918;73.504;2023-11-19T08:38:56;100637.09;;;-7.95;91.73
59487;BME280;45298;54.918;73.504;2023-11-19T08:41:25;100654.56;;;-7.81;91.63
59487;BME280;45298;54.918;73.504;2023-11-19T08:43:55;100676.25;;;-7.70;92.06
59487;BME280;45298;54.918;73.504;2023-11-19T08:46:24;100667.34;;;-7.84;91.36
59487;BME280;45298;54.918;73.504;2023-11-19T08:48:54;100689.78;;;-7.80;90.63
59487;BME280;45298;54.918;73.504;2023-11-19T08:51:25;100694.84;;;-7.85;90.98
59487;BME280;45298;54.918;73.504;2023-11-19T08:53:54;100686.03;;;-7.95;90.72
59487;BME280;45298;54.918;73.504;2023-11-19T08:56:23;100702.41;;;-7.90;91.99
59487;BME280;45298;54.918;73.504;2023-11-19T08:58:52;100691.28;;;-7.89;92.33
59487;BME280;45298;54.918;73.504;2023-11-19T09:01:20;100707.72;;;-7.83;91.87
59487;BME280;45298;54.918;73.504;2023-11-19T09:03:50;100684.94;;;-8.05;92.40
59487;BME280;45298;54.918;73.504;2023-11-19T09:06:19;100707.41;;;-7.97;91.38
59487;BME280;45298;54.918;73.504;2023-11-19T09:08:48;100714.34;;;-7.95;91.97
59487;BME280;45298;54.918;73.504;2023-11-19T09:11:17;100734.22;;;-7.87;91.70
59487;BME280;45298;54.918;73.504;2023-11-19T09:13:46;100722.81;;;-7.99;91.99
59487;BME280;45298;54.918;73.504;2023-11-19T09:16:15;100726.22;;;-8.00;92.96
59487;BME280;45298;54.918;73.504;2023-11-19T09:18:44;100741.63;;;-8.01;91.46
59487;BME280;45298;54.918;73.504;2023-11-19T09:21:13;100742.25;;;-8.10;91.55
59487;BME280;45298;54.918;73.504;2023-11-19T09:23:42;100744.06;;;-8.08;91.99
59487;BME280;45298;54.918;73.504;2023-11-19T09:26:12;100730.09;;;-8.17;90.46
59487;BME280;45298;54.918;73.504;2023-11-19T09:28:41;100737.47;;;-8.30;90.72
59487;BME280;45298;54.918;73.504;2023-11-19T09:31:18;100743.97;;;-8.43;90.48
59487;BME280;45298;54.918;73.504;2023-11-19T09:33:47;100758.47;;;-8.46;90.08
59487;BME280;45298;54.918;73.504;2023-11-19T09:36:16;100762.75;;;-8.47;91.58
59487;BME280;45298;54.918;73.504;2023-11-19T09:38:45;100765.31;;;-8.48;91.18
59487;BME280;45298;54.918;73.504;2023-11-19T09:41:15;100760.06;;;-8.52;91.73
59487;BME280;45298;54.918;73.504;2023-11-19T09:43:45;100733.00;;;-8.71;91.98
59487;BME280;45298;54.918;73.504;2023-11-19T09:46:15;100763.47;;;-8.53;92.42
59487;BME280;45298;54.918;73.504;2023-11-19T09:48:45;100780.75;;;-8.48;92.10
59487;BME280;45298;54.918;73.504;2023-11-19T09:51:16;100775.66;;;-8.45;92.07
59487;BME280;45298;54.918;73.504;2023-11-19T09:53:45;100774.88;;;-8.43;93.20
59487;BME280;45298;54.918;73.504;2023-11-19T09:56:14;100775.72;;;-8.44;93.06
59487;BME280;45298;54.918;73.504;2023-11-19T09:58:45;100789.53;;;-8.40;92.54
59487;BME280;45298;54.918;73.504;2023-11-19T10:01:15;100782.34;;;-8.54;92.34
59487;BME280;45298;54.918;73.504;2023-11-19T10:03:48;100784.75;;;-8.58;91.69
59487;BME280;45298;54.918;73.504;2023-11-19T10:06:18;100799.28;;;-8.60;92.62
59487;BME280;45298;54.918;73.504;2023-11-19T10:08:47;100805.13;;;-8.66;92.45
59487;BME280;45298;54.918;73.504;2023-11-19T10:11:17;100815.41;;;-8.66;92.65
59487;BME280;45298;54.918;73.504;2023-11-19T10:13:46;100805.72;;;-8.76;92.61
59487;BME280;45298;54.918;73.504;2023-11-19T10:16:17;100811.69;;;-8.77;92.81
59487;BME280;45298;54.918;73.504;2023-11-19T10:18:48;100816.63;;;-8.84;92.59
59487;BME280;45298;54.918;73.504;2023-11-19T10:21:19;100819.84;;;-8.91;92.02
59487;BME280;45298;54.918;73.504;2023-11-19T10:23:55;100826.66;;;-8.93;92.18
59487;BME280;45298;54.918;73.504;2023-11-19T10:26:28;100829.22;;;-8.93;93.61
59487;BME280;45298;54.918;73.504;2023-11-19T10:28:57;100825.56;;;-9.00;93.46
59487;BME280;45298;54.918;73.504;2023-11-19T10:31:26;100832.63;;;-8.94;93.58
59487;BME280;45298;54.918;73.504;2023-11-19T10:33:55;100842.16;;;-8.90;93.53
59487;BME280;45298;54.918;73.504;2023-11-19T10:36:37;100841.97;;;-8.96;94.11
59487;BME280;45298;54.918;73.504;2023-11-19T10:39:09;100850.44;;;-8.99;93.16
59487;BME280;45298;54.918;73.504;2023-11-19T10:41:38;100824.09;;;-9.20;92.53
59487;BME280;45298;54.918;73.504;2023-11-19T10:44:07;100823.03;;;-9.27;92.73
59487;BME280;45298;54.918;73.504;2023-11-19T10:46:41;100860.59;;;-9.03;92.83
59487;BME280;45298;54.918;73.504;2023-11-19T10:49:11;100863.03;;;-9.08;93.46
59487;BME280;45298;54.918;73.504;2023-11-19T10:51:45;100874.91;;;-9.12;93.18
59487;BME280;45298;54.918;73.504;2023-11-19T10:54:18;100876.56;;;-9.14;93.15
59487;BME280;45298;54.918;73.504;2023-11-19T10:56:54;100866.81;;;-9.24;92.45
59487;BME280;45298;54.918;73.504;2023-11-19T10:59:26;100862.94;;;-9.38;93.03
59487;BME280;45298;54.918;73.504;2023-11-19T11:02:03;100878.59;;;-9.31;92.26
59487;BME280;45298;54.918;73.504;2023-11-19T11:04:39;100891.06;;;-9.43;92.44
59487;BME280;45298;54.918;73.504;2023-11-19T11:07:10;100886.09;;;-9.37;92.55
59487;BME280;45298;54.918;73.504;2023-11-19T11:09:41;100899.03;;;-9.34;92.41
59487;BME280;45298;54.918;73.504;2023-11-19T11:12:10;100887.97;;;-9.31;93.07
59487;BME280;45298;54.918;73.504;2023-11-19T11:14:40;100894.88;;;-9.30;93.65
59487;BME280;45298;54.918;73.504;2023-11-19T11:17:12;100906.06;;;-9.28;94.09
59487;BME280;45298;54.918;73.504;2023-11-19T11:19:46;100893.88;;;-9.35;93.78
59487;BME280;45298;54.918;73.504;2023-11-19T11:22:16;100912.91;;;-9.29;93.66
59487;BME280;45298;54.918;73.504;2023-11-19T11:31:31;100928.44;;;-9.26;94.05
59487;BME280;45298;54.918;73.504;2023-11-19T11:34:21;100932.81;;;-9.23;93.92
59487;BME280;45298;54.918;73.504;2023-11-19T11:39:41;100918.28;;;-9.22;93.65
59487;BME280;45298;54.918;73.504;2023-11-19T11:50:16;100944.81;;;-9.22;93.62
59487;BME280;45298;54.918;73.504;2023-11-19T11:55:37;100945.53;;;-9.26;93.22
59487;BME280;45298;54.918;73.504;2023-11-19T11:58:26;100962.66;;;-9.27;93.81
59487;BME280;45298;54.918;73.504;2023-11-19T12:00:57;100949.66;;;-9.31;93.77
59487;BME280;45298;54.918;73.504;2023-11-19T12:03:28;100968.56;;;-9.29;93.81
59487;BME280;45298;54.918;73.504;2023-11-19T12:05:58;100952.84;;;-9.38;93.54
59487;BME280;45298;54.918;73.504;2023-11-19T12:08:29;100951.97;;;-9.39;93.33
59487;BME280;45298;54.918;73.504;2023-11-19T12:10:58;100949.47;;;-9.37;93.90
59487;BME280;45298;54.918;73.504;2023-11-19T12:13:55;100958.09;;;-9.35;93.91
59487;BME280;45298;54.918;73.504;2023-11-19T12:16:28;100949.25;;;-9.44;93.54
59487;BME280;45298;54.918;73.504;2023-11-19T12:19:03;100954.50;;;-9.41;94.40
59487;BME280;45298;54.918;73.504;2023-11-19T12:21:34;100957.66;;;-9.48;94.25
59487;BME280;45298;54.918;73.504;2023-11-19T12:24:07;100927.94;;;-9.65;94.18
59487;BME280;45298;54.918;73.504;2023-11-19T12:26:37;100980.06;;;-9.44;93.44
59487;BME280;45298;54.918;73.504;2023-11-19T12:29:07;100938.13;;;-9.68;93.49
59487;BME280;45298;54.918;73.504;2023-11-19T12:31:37;100970.13;;;-9.59;94.56
59487;BME280;45298;54.918;73.504;2023-11-19T12:34:07;100981.59;;;-9.49;94.20
59487;BME280;45298;54.918;73.504;2023-11-19T12:36:41;100983.16;;;-9.54;94.60
59487;BME280;45298;54.918;73.504;2023-11-19T12:39:10;100976.25;;;-9.55;94.21
59487;BME280;45298;54.918;73.504;2023-11-19T12:41:51;100988.19;;;-9.57;94.20
59487;BME280;45298;54.918;73.504;2023-11-19T12:44:20;101008.00;;;-9.53;93.93
59487;BME280;45298;54.918;73.504;2023-11-19T12:47:09;101005.25;;;-9.58;93.67
59487;BME280;45298;54.918;73.504;2023-11-19T12:49:39;100982.38;;;-9.76;93.86
59487;BME280;45298;54.918;73.504;2023-11-19T12:52:12;100986.63;;;-9.76;94.10
59487;BME280;45298;54.918;73.504;2023-11-19T12:54:41;100986.59;;;-9.78;94.07
59487;BME280;45298;54.918;73.504;2023-11-19T12:57:10;101017.66;;;-9.70;94.31
59487;BME280;45298;54.918;73.504;2023-11-19T12:59:39;101009.94;;;-9.72;94.58
59487;BME280;45298;54.918;73.504;2023-11-19T13:02:08;101004.31;;;-9.84;93.90
59487;BME280;45298;54.918;73.504;2023-11-19T13:04:37;101034.41;;;-9.81;94.15
59487;BME280;45298;54.918;73.504;2023-11-19T13:07:06;100983.25;;;-9.99;93.81
59487;BME280;45298;54.918;73.504;2023-11-19T13:09:35;101023.22;;;-9.82;94.71
59487;BME280;45298;54.918;73.504;2023-11-19T13:12:14;101014.28;;;-9.93;93.61
59487;BME280;45298;54.918;73.504;2023-11-19T13:14:44;101006.19;;;-10.04;93.41
59487;BME280;45298;54.918;73.504;2023-11-19T13:17:15;101021.69;;;-10.01;93.52
59487;BME280;45298;54.918;73.504;2023-11-19T13:19:47;101029.31;;;-10.03;94.02
59487;BME280;45298;54.918;73.504;2023-11-19T13:22:17;101029.97;;;-10.08;93.60
59487;BME280;45298;54.918;73.504;2023-11-19T13:24:45;101018.34;;;-10.21;93.83
59487;BME280;45298;54.918;73.504;2023-11-19T13:27:14;101005.81;;;-10.36;93.05
59487;BME280;45298;54.918;73.504;2023-11-19T13:29:43;101022.25;;;-10.31;93.31
59487;BME280;45298;54.918;73.504;2023-11-19T13:32:12;101017.78;;;-10.37;94.14
59487;BME280;45298;54.918;73.504;2023-11-19T13:34:41;101018.53;;;-10.39;94.08
59487;BME280;45298;54.918;73.504;2023-11-19T13:37:12;101023.56;;;-10.42;93.88
59487;BME280;45298;54.918;73.504;2023-11-19T13:39:42;101012.19;;;-10.49;93.73
59487;BME280;45298;54.918;73.504;2023-11-19T13:42:11;101025.88;;;-10.49;93.97
59487;BME280;45298;54.918;73.504;2023-11-19T13:44:41;101012.78;;;-10.56;93.85
59487;BME280;45298;54.918;73.504;2023-11-19T13:47:09;101029.09;;;-10.54;93.48
59487;BME280;45298;54.918;73.504;2023-11-19T13:49:39;101015.03;;;-10.64;92.68
59487;BME280;45298;54.918;73.504;2023-11-19T13:52:08;101032.22;;;-10.61;92.46
59487;BME280;45298;54.918;73.504;2023-11-19T13:54:37;101017.16;;;-10.75;94.04